Terminal Aerodrome Forecast
Issued by NWS

Home | Current Version | Previous Version | Text Only | Print | Product List | Glossary On
Versions: 1 2 3 4 5 6 7 8 9 10 11 12 13 14 15 16 17 18 19
000
FTUS42 KTBW 231900 AAA
TAFLAL
TAF AMD
KLAL 231953Z 2320/2418 26004KT P6SM VCTS BKN035CB BKN150
     FM240000 VRB04KT P6SM VCSH OVC035
     FM240600 VRB03KT P6SM SCT040 BKN070
     FM241200 06005KT P6SM SCT050 BKN090=

USA.gov is the U.S. government's official web portal to all federal, state and local government web resources and services.